createdAt,value
2023-04-16T00:00:35.124Z,100110.47
2023-04-16T00:05:40.072Z,100120.13
2023-04-16T00:10:43.457Z,100121.38
2023-04-16T00:15:48.732Z,100128.56
2023-04-16T00:20:53.590Z,100129.66
2023-04-16T00:26:00.057Z,100132.28
2023-04-16T00:31:03.864Z,100129.09
2023-04-16T00:36:08.976Z,100137.81
2023-04-16T00:41:12.996Z,100132.41
2023-04-16T00:46:17.983Z,100135.72
2023-04-16T00:51:25.460Z,100136.53
2023-04-16T00:56:30.010Z,100140.00
2023-04-16T01:01:33.288Z,100137.91
2023-04-16T01:06:37.911Z,100134.19
2023-04-16T01:11:42.039Z,100144.69
2023-04-16T01:16:45.209Z,100138.59
2023-04-16T01:21:51.046Z,100153.63
2023-04-16T01:26:55.051Z,100150.19
2023-04-16T01:31:58.403Z,100151.31
2023-04-16T01:37:03.051Z,100159.16
2023-04-16T01:42:06.316Z,100163.72
2023-04-16T01:47:10.045Z,100155.16
2023-04-16T01:52:15.488Z,100165.66
2023-04-16T01:57:18.878Z,100162.63
2023-04-16T02:02:28.219Z,100158.19
2023-04-16T02:07:33.330Z,100160.69
2023-04-16T02:12:36.505Z,100168.78
2023-04-16T02:17:39.793Z,100163.56
2023-04-16T02:22:44.666Z,100175.00
2023-04-16T02:27:47.856Z,100173.34
2023-04-16T02:32:51.179Z,100168.94
2023-04-16T02:37:55.786Z,100177.78
2023-04-16T02:42:59.569Z,100176.25
2023-04-16T02:48:03.027Z,100185.63
2023-04-16T02:53:07.944Z,100190.88
2023-04-16T02:58:11.161Z,100195.97
2023-04-16T03:03:14.663Z,100191.84
2023-04-16T03:08:19.383Z,100191.84
2023-04-16T03:13:22.796Z,100186.59
2023-04-16T03:18:26.173Z,100204.09
2023-04-16T03:23:31.073Z,100196.81
2023-04-16T03:28:34.631Z,100202.84
2023-04-16T03:33:37.960Z,100203.97
2023-04-16T03:38:42.781Z,100208.53
2023-04-16T03:43:46.094Z,100208.06
2023-04-16T03:48:49.299Z,100214.97
2023-04-16T03:53:53.959Z,100214.28
2023-04-16T03:58:57.162Z,100223.09
2023-04-16T04:04:00.993Z,100226.56
2023-04-16T04:09:06.185Z,100232.63
2023-04-16T04:14:09.589Z,100234.41
2023-04-16T04:19:12.877Z,100246.66
2023-04-16T04:24:17.668Z,100253.56
2023-04-16T04:29:21.017Z,100250.81
2023-04-16T04:34:24.302Z,100264.72
2023-04-16T04:39:31.848Z,100256.06
2023-04-16T04:44:35.031Z,100263.78
2023-04-16T04:49:38.265Z,100269.28
2023-04-16T04:54:42.901Z,100271.78
2023-04-16T04:59:46.228Z,100282.13
2023-04-16T05:04:49.473Z,100283.91
2023-04-16T05:09:54.196Z,100283.78
2023-04-16T05:14:57.680Z,100296.88
2023-04-16T05:20:01.921Z,100293.13
2023-04-16T05:25:07.241Z,100300.19
2023-04-16T05:30:11.165Z,100298.38
2023-04-16T05:35:15.302Z,100308.84
2023-04-16T05:40:22.213Z,100320.28
2023-04-16T05:45:27.463Z,100319.31
2023-04-16T05:50:31.307Z,100317.66
2023-04-16T05:55:37.052Z,100325.94
2023-04-16T06:00:40.852Z,100336.31
2023-04-16T06:05:44.353Z,100336.03
2023-04-16T06:10:49.832Z,100347.06
2023-04-16T06:15:53.167Z,100341.56
2023-04-16T06:20:58.916Z,100349.84
2023-04-16T06:26:03.910Z,100361.16
2023-04-16T06:31:09.815Z,100357.56
2023-04-16T06:36:13.074Z,100361.97
2023-04-16T06:41:17.693Z,100368.63
2023-04-16T06:46:21.138Z,100371.94
2023-04-16T06:51:24.335Z,100373.44
2023-04-16T06:56:29.011Z,100381.44
2023-04-16T07:01:32.639Z,100383.00
2023-04-16T07:06:36.105Z,100389.03
2023-04-16T07:11:42.137Z,100383.78
2023-04-16T07:16:45.412Z,100393.88
2023-04-16T07:21:54.534Z,100395.38
2023-04-16T07:26:59.226Z,100404.78
2023-04-16T07:32:03.389Z,100415.41
2023-04-16T07:37:07.828Z,100412.66
2023-04-16T07:42:16.944Z,100425.44
2023-04-16T07:47:23.266Z,100421.44
2023-04-16T07:52:27.534Z,100431.34
2023-04-16T07:57:32.107Z,100445.28
2023-04-16T08:02:38.448Z,100450.06
2023-04-16T08:07:42.066Z,100455.28
2023-04-16T08:12:46.685Z,100451.97
2023-04-16T08:17:53.967Z,100458.75
2023-04-16T08:22:57.432Z,100452.81
2023-04-16T08:28:03.038Z,100459.88
2023-04-16T08:33:06.849Z,100463.47
2023-04-16T08:38:12.592Z,100471.47
2023-04-16T08:43:19.374Z,100485.66
2023-04-16T08:48:24.534Z,100482.44
2023-04-16T08:53:36.893Z,100490.78
2023-04-16T08:58:41.899Z,100495.31
2023-04-16T09:03:49.932Z,100501.63
2023-04-16T09:08:55.490Z,100504.00
2023-04-16T09:14:01.842Z,100507.03
2023-04-16T09:19:05.103Z,100509.81
2023-04-16T09:24:14.616Z,100523.59
2023-04-16T09:29:35.161Z,100517.44
2023-04-16T09:34:57.560Z,100524.06
2023-04-16T09:40:05.638Z,100533.84
2023-04-16T09:45:10.873Z,100537.97
2023-04-16T09:50:18.176Z,100547.63
2023-04-16T09:55:24.836Z,100536.06
2023-04-16T10:00:30.805Z,100542.88
2023-04-16T10:05:34.202Z,100537.22
2023-04-16T10:10:43.448Z,100556.75
2023-04-16T10:15:48.472Z,100554.94
2023-04-16T10:20:51.878Z,100561.03
2023-04-16T10:25:59.095Z,100568.31
2023-04-16T10:31:05.727Z,100573.44
2023-04-16T10:36:13.429Z,100577.72
2023-04-16T10:41:16.926Z,100573.22
2023-04-16T10:46:27.033Z,100580.13
2023-04-16T10:51:32.611Z,100578.50
2023-04-16T10:56:39.519Z,100590.91
2023-04-16T11:01:45.768Z,100585.41
2023-04-16T11:07:06.355Z,100595.34
2023-04-16T11:12:13.412Z,100586.97
2023-04-16T11:17:22.418Z,100579.41
2023-04-16T11:22:26.457Z,100591.56
2023-04-16T11:27:36.255Z,100589.59
2023-04-16T11:32:41.508Z,100596.34
2023-04-16T11:37:48.438Z,100601.84
2023-04-16T11:42:51.712Z,100609.41
2023-04-16T11:47:57.995Z,100608.03
2023-04-16T11:53:06.376Z,100611.78
2023-04-16T11:58:15.487Z,100615.22
2023-04-16T12:03:20.662Z,100622.97
2023-04-16T12:08:31.766Z,100629.19
2023-04-16T12:13:39.968Z,100614.44
2023-04-16T12:19:01.366Z,100619.94
2023-04-16T12:24:04.815Z,100626.19
2023-04-16T12:29:18.987Z,100626.38
2023-04-16T12:34:48.094Z,100636.16
2023-04-16T12:39:48.113Z,100640.97
2023-04-16T12:44:51.674Z,100638.78
2023-04-16T12:49:57.320Z,100630.69
2023-04-16T12:55:00.624Z,100634.50
2023-04-16T13:00:08.870Z,100629.78
2023-04-16T13:05:14.606Z,100638.63
2023-04-16T13:10:25.098Z,100646.44
2023-04-16T13:15:28.481Z,100646.63
2023-04-16T13:20:36.106Z,100648.16
2023-04-16T13:25:39.391Z,100652.69
2023-04-16T13:30:48.456Z,100648.44
2023-04-16T13:35:53.483Z,100651.91
2023-04-16T13:41:01.184Z,100653.91
2023-04-16T13:46:04.589Z,100654.31
2023-04-16T13:51:12.050Z,100651.44
2023-04-16T13:56:15.536Z,100662.53
2023-04-16T14:01:18.901Z,100662.41
2023-04-16T14:06:23.827Z,100662.94
2023-04-16T14:11:27.605Z,100667.22
2023-04-16T14:16:33.440Z,100670.00
2023-04-16T14:21:38.167Z,100669.31
2023-04-16T14:26:47.413Z,100672.47
2023-04-16T14:31:54.107Z,100673.16
2023-04-16T14:36:58.945Z,100675.06
2023-04-16T14:42:03.351Z,100676.97
2023-04-16T14:47:06.717Z,100682.50
2023-04-16T14:52:14.437Z,100676.94
2023-04-16T14:57:17.888Z,100674.91
2023-04-16T15:02:22.075Z,100678.78
2023-04-16T15:07:30.152Z,100682.25
2023-04-16T15:12:33.355Z,100676.03
2023-04-16T15:17:39.273Z,100683.78
2023-04-16T15:22:43.880Z,100682.50
2023-04-16T15:27:50.168Z,100687.19
2023-04-16T15:32:55.133Z,100696.00
2023-04-16T15:38:09.980Z,100698.53
2023-04-16T15:43:13.335Z,100698.25
2023-04-16T15:48:20.299Z,100699.63
2023-04-16T15:53:25.118Z,100697.72
2023-04-16T15:58:29.388Z,100693.44
2023-04-16T16:03:36.572Z,100707.41
2023-04-16T16:08:43.709Z,100714.03
2023-04-16T16:13:50.078Z,100714.13
2023-04-16T16:18:53.353Z,100724.81
2023-04-16T16:24:01.098Z,100723.53
2023-04-16T16:29:06.035Z,100721.44
2023-04-16T16:34:20.070Z,100738.78
2023-04-16T16:39:28.428Z,100737.19
2023-04-16T16:44:31.970Z,100736.19
2023-04-16T16:49:35.153Z,100744.81
2023-04-16T16:54:43.495Z,100738.16
2023-04-16T16:59:46.714Z,100749.16
2023-04-16T17:04:55.859Z,100753.25
2023-04-16T17:10:11.270Z,100755.53
2023-04-16T17:15:14.826Z,100754.34
2023-04-16T17:20:21.482Z,100764.03
2023-04-16T17:25:26.555Z,100760.22
2023-04-16T17:30:32.075Z,100772.88
2023-04-16T17:35:41.243Z,100776.59
2023-04-16T17:40:57.102Z,100778.13
2023-04-16T17:46:00.565Z,100787.28
2023-04-16T17:51:18.682Z,100794.34
2023-04-16T17:56:25.743Z,100793.75
2023-04-16T18:01:29.622Z,100798.38
2023-04-16T18:06:56.185Z,100801.84
2023-04-16T18:12:01.929Z,100812.69
2023-04-16T18:17:12.005Z,100805.94
2023-04-16T18:22:15.255Z,100814.50
2023-04-16T18:27:26.736Z,100820.78
2023-04-16T18:32:31.332Z,100826.16
2023-04-16T18:37:35.714Z,100826.88
2023-04-16T18:42:40.673Z,100832.13
2023-04-16T18:47:51.785Z,100839.38
2023-04-16T18:52:55.407Z,100842.09
2023-04-16T18:57:59.937Z,100852.94
2023-04-16T19:03:09.762Z,100851.63
2023-04-16T19:08:13.430Z,100856.88
2023-04-16T19:13:21.622Z,100854.94
2023-04-16T19:18:24.934Z,100855.06
2023-04-16T19:23:31.964Z,100855.91
2023-04-16T19:28:38.736Z,100859.47
2023-04-16T19:33:43.593Z,100855.31
2023-04-16T19:38:46.952Z,100862.09
2023-04-16T19:43:51.642Z,100857.34
2023-04-16T19:48:54.962Z,100866.28
2023-04-16T19:53:58.858Z,100858.53
2023-04-16T19:59:11.407Z,100866.63
2023-04-16T20:04:15.199Z,100871.06
2023-04-16T20:09:21.152Z,100872.13
2023-04-16T20:14:26.315Z,100874.13
2023-04-16T20:19:34.023Z,100878.41
2023-04-16T20:24:39.037Z,100882.00
2023-04-16T20:29:43.906Z,100874.13
2023-04-16T20:34:47.414Z,100872.47
2023-04-16T20:39:54.289Z,100870.09
2023-04-16T20:45:00.812Z,100877.00
2023-04-16T20:50:04.077Z,100879.00
2023-04-16T20:55:08.669Z,100874.69
2023-04-16T21:00:15.117Z,100882.94
2023-04-16T21:05:21.670Z,100885.03
2023-04-16T21:10:25.677Z,100885.91
2023-04-16T21:15:30.659Z,100885.19
2023-04-16T21:20:34.001Z,100883.63
2023-04-16T21:25:37.173Z,100893.50
2023-04-16T21:30:42.090Z,100890.88
2023-04-16T21:35:45.499Z,100888.25
2023-04-16T21:40:50.846Z,100889.34
2023-04-16T21:45:55.779Z,100897.06
2023-04-16T21:51:06.260Z,100890.88
2023-04-16T21:56:09.476Z,100883.16
2023-04-16T22:01:14.991Z,100894.56
2023-04-16T22:06:18.716Z,100893.63
2023-04-16T22:11:22.762Z,100894.91
2023-04-16T22:16:27.347Z,100894.44
2023-04-16T22:21:31.463Z,100893.59
2023-04-16T22:26:34.782Z,100897.78
2023-04-16T22:31:39.617Z,100900.75
2023-04-16T22:36:43.181Z,100902.88
2023-04-16T22:41:46.370Z,100898.94
2023-04-16T22:46:51.171Z,100900.47
2023-04-16T22:51:54.461Z,100892.13
2023-04-16T22:56:57.876Z,100906.28
2023-04-16T23:02:02.631Z,100903.88
2023-04-16T23:07:06.098Z,100899.72
2023-04-16T23:12:09.523Z,100899.00
2023-04-16T23:17:14.678Z,100903.50
2023-04-16T23:22:17.829Z,100909.69
2023-04-16T23:27:21.047Z,100908.34
2023-04-16T23:32:25.873Z,100907.63
2023-04-16T23:37:29.269Z,100903.47
2023-04-16T23:42:32.391Z,100902.03
2023-04-16T23:47:37.286Z,100903.06
2023-04-16T23:52:40.537Z,100902.25
2023-04-16T23:57:43.657Z,100903.44
